Time;durP1;ratioP1;P1;durP2;ratioP2;P2;SDS_P1;SDS_P2;PMS_P1;PMS_P2;Temp;Humidity;BMP_temperature;BMP_pressure;BME280_temperature;BME280_humidity;BME280_pressure;Samples;Min_cycle;Max_cycle;Signal;HPM_P1;HPM_P2
2022/09/12 05:26:32;;;;;;;;;;;17.30;43.60;;;;;;6175371;23;19930;-70
2022/09/12 05:28:59;;;;;;;;;;;17.30;43.80;;;;;;6182547;23;19955;-70
2022/09/12 05:31:26;;;;;;;;;;;17.20;43.40;;;;;;6132891;23;20225;-70
2022/09/12 05:33:53;;;;;;;;;;;17.20;44.10;;;;;;6184467;23;20362;-69
2022/09/12 05:36:21;;;;;;;;;;;17.20;45.40;;;;;;6184898;23;20312;-69
2022/09/12 05:38:48;;;;;;;;;;;17.30;43.50;;;;;;6184083;23;19912;-70
2022/09/12 05:41:18;;;;;;;;;;;17.30;43.80;;;;;;6184045;23;19912;-70
2022/09/12 05:43:45;;;;;;;;;;;17.30;42.80;;;;;;6157381;23;19951;-70
2022/09/12 05:46:12;;;;;;;;;;;17.30;44.10;;;;;;6183273;23;19904;-70
2022/09/12 05:48:39;;;;;;;;;;;17.30;43.10;;;;;;6157372;23;19911;-70
2022/09/12 05:51:07;;;;;;;;;;;17.30;43.40;;;;;;6155131;23;19987;-70
2022/09/12 05:53:37;;;;;;;;;;;17.30;44.80;;;;;;6184433;23;19904;-70
2022/09/12 05:56:10;;;;;;;;;;;17.40;43.80;;;;;;6184003;23;19910;-70
2022/09/12 05:58:37;;;;;;;;;;;17.40;44.60;;;;;;6185405;23;19901;-70
2022/09/12 06:01:06;;;;;;;;;;;17.40;44.10;;;;;;6158011;23;19912;-70
2022/09/12 06:03:33;;;;;;;;;;;17.50;44.00;;;;;;6184338;23;19935;-70
2022/09/12 06:06:04;;;;;;;;;;;17.40;44.00;;;;;;6184300;23;20210;-70
2022/09/12 06:08:33;;;;;;;;;;;17.40;44.60;;;;;;6180299;23;19980;-70
2022/09/12 06:11:01;;;;;;;;;;;17.40;43.80;;;;;;6184655;23;19923;-70
2022/09/12 06:13:27;;;;;;;;;;;17.30;42.50;;;;;;6183213;23;19905;-68
2022/09/12 06:15:54;;;;;;;;;;;17.30;43.90;;;;;;6183243;23;19904;-69
2022/09/12 06:18:21;;;;;;;;;;;17.20;45.60;;;;;;6184316;23;19943;-69
2022/09/12 06:20:47;;;;;;;;;;;17.20;45.30;;;;;;6182369;23;19908;-69
2022/09/12 06:23:14;;;;;;;;;;;17.20;45.50;;;;;;6184145;23;19979;-69
2022/09/12 06:25:45;;;;;;;;;;;17.10;45.60;;;;;;6183764;23;20216;-69
2022/09/12 06:28:12;;;;;;;;;;;17.10;45.20;;;;;;6184077;23;19920;-69
2022/09/12 06:30:39;;;;;;;;;;;17.10;45.60;;;;;;6157805;23;19915;-69
2022/09/12 06:33:05;;;;;;;;;;;17.00;46.70;;;;;;6183908;23;19979;-69
2022/09/12 06:35:35;;;;;;;;;;;17.00;46.10;;;;;;6183389;23;19905;-70
2022/09/12 06:38:01;;;;;;;;;;;17.00;46.30;;;;;;6183258;23;19983;-69
2022/09/12 06:40:28;;;;;;;;;;;17.00;47.40;;;;;;6156982;23;19908;-69
2022/09/12 06:42:55;;;;;;;;;;;17.00;48.30;;;;;;6183724;23;19908;-69
2022/09/12 06:45:21;;;;;;;;;;;17.00;48.70;;;;;;6183818;23;19912;-70
2022/09/12 06:47:48;;;;;;;;;;;17.00;48.60;;;;;;6183370;23;19991;-70
2022/09/12 06:50:14;;;;;;;;;;;17.00;48.80;;;;;;6183793;23;19905;-70
2022/09/12 06:52:41;;;;;;;;;;;17.00;49.20;;;;;;6182933;23;20244;-70
2022/09/12 06:55:08;;;;;;;;;;;16.90;45.80;;;;;;6180550;23;19916;-68
2022/09/12 06:57:37;;;;;;;;;;;16.90;45.50;;;;;;6180413;23;20235;-68
2022/09/12 07:00:04;;;;;;;;;;;16.80;46.30;;;;;;6181101;23;19935;-68
2022/09/12 07:02:31;;;;;;;;;;;16.80;46.70;;;;;;6180938;23;20287;-68
2022/09/12 07:04:57;;;;;;;;;;;16.90;47.20;;;;;;6180627;23;19919;-68
2022/09/12 07:07:24;;;;;;;;;;;16.90;46.70;;;;;;6174716;23;19908;-68
2022/09/12 07:09:51;;;;;;;;;;;16.80;46.70;;;;;;6177501;23;20351;-68
2022/09/12 07:12:17;;;;;;;;;;;16.80;49.80;;;;;;6180133;23;19908;-68
2022/09/12 07:14:44;;;;;;;;;;;16.80;49.80;;;;;;6177914;23;19908;-70
2022/09/12 07:17:11;;;;;;;;;;;16.80;49.90;;;;;;6180222;23;19914;-69
2022/09/12 07:19:37;;;;;;;;;;;16.80;50.10;;;;;;6180670;23;19912;-70
2022/09/12 07:22:04;;;;;;;;;;;16.80;49.80;;;;;;6180348;23;19904;-69
2022/09/12 07:24:30;;;;;;;;;;;16.70;50.00;;;;;;6180266;23;20015;-69
2022/09/12 07:26:57;;;;;;;;;;;16.70;49.70;;;;;;6180026;23;20289;-70
2022/09/12 07:29:24;;;;;;;;;;;16.70;48.70;;;;;;6180581;23;20336;-70
2022/09/12 07:31:50;;;;;;;;;;;16.70;49.40;;;;;;6181010;23;19913;-71
2022/09/12 07:34:17;;;;;;;;;;;16.70;50.60;;;;;;6179022;23;20327;-70
2022/09/12 07:36:44;;;;;;;;;;;16.70;48.50;;;;;;6181206;23;20297;-71
2022/09/12 07:39:10;;;;;;;;;;;16.60;48.00;;;;;;6179402;23;20034;-71
2022/09/12 07:41:37;;;;;;;;;;;16.60;47.70;;;;;;6180170;23;19940;-71
2022/09/12 07:44:05;;;;;;;;;;;16.70;50.10;;;;;;6180190;23;20338;-71
2022/09/12 07:46:32;;;;;;;;;;;16.70;51.40;;;;;;6179785;23;19932;-70
2022/09/12 07:48:59;;;;;;;;;;;16.60;52.20;;;;;;6179868;23;19948;-70
2022/09/12 07:51:26;;;;;;;;;;;16.60;51.20;;;;;;6180557;23;20327;-70
